Webcam Flughafen St.Gallen-Altenrhein

Live-Bilder und Zeitraffer LSZR / ACH.

 

Live aus Altenrhein
LIVE
LSZR 090320Z AUTO VRB01KT 9999 OVC085 07/05 Q1023
Zeitraffer heute
2020-04-09 00:13:53
LSZR 082150Z AUTO 25006KT CAVOK 12/06 Q1023